Time;durP1;ratioP1;P1;durP2;ratioP2;P2;SDS_P1;SDS_P2;PMS_P1;PMS_P2;Temp;Humidity;BMP_temperature;BMP_pressure;BME280_temperature;BME280_humidity;BME280_pressure;Samples;Min_cycle;Max_cycle;Signal;HPM_P1;HPM_P2
2022/05/24 00:00:16;;;;;;;6.63;2.05;;;;;;;;;;4947359;28;20119;-65
2022/05/24 00:02:41;;;;;;;6.47;3.03;;;;;;;;;;4987066;28;20064;-65
2022/05/24 00:05:08;;;;;;;5.63;2.17;;;;;;;;;;4945573;28;20123;-65
2022/05/24 00:07:35;;;;;;;8.90;2.25;;;;;;;;;;4949542;28;20043;-65
2022/05/24 00:10:00;;;;;;;9.07;2.70;;;;;;;;;;4948111;28;20032;-66
2022/05/24 00:12:26;;;;;;;4.45;2.33;;;;;;;;;;4934652;28;20030;-65
2022/05/24 00:17:36;;;;;;;7.32;2.55;;;;;;;;;;4953244;28;20046;-66
2022/05/24 00:20:02;;;;;;;9.60;2.80;;;;;;;;;;4945288;28;20043;-66
2022/05/24 00:22:27;;;;;;;5.53;2.30;;;;;;;;;;4939303;28;20047;-65
2022/05/24 00:24:53;;;;;;;7.63;2.40;;;;;;;;;;4949011;28;20039;-66
2022/05/24 00:27:18;;;;;;;6.18;2.00;;;;;;;;;;4989386;28;20039;-65
2022/05/24 00:29:43;;;;;;;5.38;2.22;;;;;;;;;;4949214;28;20028;-66
2022/05/24 00:32:09;;;;;;;6.60;2.13;;;;;;;;;;4947628;28;20043;-65
2022/05/24 00:34:34;;;;;;;5.93;2.05;;;;;;;;;;4944443;28;20074;-66
2022/05/24 00:37:00;;;;;;;5.93;2.38;;;;;;;;;;4942303;28;20058;-65
2022/05/24 00:39:25;;;;;;;5.78;2.22;;;;;;;;;;4941660;28;20111;-66
2022/05/24 00:42:01;;;;;;;12.52;2.00;;;;;;;;;;4948827;28;20110;-66
2022/05/24 00:44:34;;;;;;;7.03;2.00;;;;;;;;;;4949041;28;20039;-65
2022/05/24 00:47:07;;;;;;;6.45;2.22;;;;;;;;;;4950479;28;20082;-66
2022/05/24 00:49:44;;;;;;;6.40;2.08;;;;;;;;;;4948351;28;20046;-66
2022/05/24 00:52:18;;;;;;;5.97;1.77;;;;;;;;;;4946788;28;20039;-66
2022/05/24 00:54:45;;;;;;;6.28;1.60;;;;;;;;;;4948616;28;20043;-66
2022/05/24 00:57:31;;;;;;;7.25;1.70;;;;;;;;;;4950578;28;20153;-65
2022/05/24 01:00:08;;;;;;;6.10;1.77;;;;;;;;;;4948453;28;20049;-66
2022/05/24 01:02:36;;;;;;;5.30;1.60;;;;;;;;;;4948497;28;20570;-66
2022/05/24 01:05:06;;;;;;;6.32;2.00;;;;;;;;;;4946731;29;20039;-65
2022/05/24 01:07:31;;;;;;;6.50;1.70;;;;;;;;;;4954028;28;20770;-65
2022/05/24 01:10:01;;;;;;;2.95;1.50;;;;;;;;;;4962448;28;20039;-66
2022/05/24 01:12:32;;;;;;;5.47;2.08;;;;;;;;;;4944745;28;20055;-66
2022/05/24 01:15:00;;;;;;;6.38;1.80;;;;;;;;;;4945659;28;20054;-66
2022/05/24 01:17:25;;;;;;;3.80;1.58;;;;;;;;;;4977510;28;20039;-65
2022/05/24 01:19:51;;;;;;;6.03;2.10;;;;;;;;;;4947030;28;20129;-66
2022/05/24 01:22:38;;;;;;;7.22;1.73;;;;;;;;;;4945322;28;20039;-66
2022/05/24 01:25:20;;;;;;;5.22;1.70;;;;;;;;;;4946623;28;20070;-65
2022/05/24 01:27:45;;;;;;;7.80;1.80;;;;;;;;;;4965732;28;20448;-66
2022/05/24 01:30:11;;;;;;;5.60;2.00;;;;;;;;;;4948413;28;20476;-65
2022/05/24 01:38:09;;;;;;;2.55;1.60;;;;;;;;;;4951507;28;20138;-65
2022/05/24 01:40:34;;;;;;;5.32;1.83;;;;;;;;;;4996829;28;20072;-66
2022/05/24 01:43:00;;;;;;;3.97;1.55;;;;;;;;;;5028581;28;20064;-66
2022/05/24 01:45:31;;;;;;;4.57;1.83;;;;;;;;;;5029310;28;20056;-66
2022/05/24 01:48:02;;;;;;;6.13;2.20;;;;;;;;;;5029331;28;20041;-65
2022/05/24 01:50:30;;;;;;;4.97;1.60;;;;;;;;;;4965602;28;20125;-66
2022/05/24 01:53:00;;;;;;;10.32;1.73;;;;;;;;;;4947544;28;20036;-66
2022/05/24 01:55:32;;;;;;;5.47;1.58;;;;;;;;;;4946595;28;20037;-66
2022/05/24 01:58:01;;;;;;;10.75;1.65;;;;;;;;;;4946729;28;20059;-65
2022/05/24 02:00:27;;;;;;;5.25;1.58;;;;;;;;;;4947120;28;20519;-65
2022/05/24 02:02:53;;;;;;;7.95;1.92;;;;;;;;;;4944041;28;20030;-66
2022/05/24 02:05:41;;;;;;;4.95;1.60;;;;;;;;;;4950366;28;20043;-66
2022/05/24 02:08:09;;;;;;;3.85;1.42;;;;;;;;;;4944726;28;20582;-66
2022/05/24 02:10:55;;;;;;;4.20;1.52;;;;;;;;;;4946659;28;20043;-66
2022/05/24 02:13:31;;;;;;;6.32;1.50;;;;;;;;;;4938052;28;20131;-66
2022/05/24 02:16:02;;;;;;;7.28;1.45;;;;;;;;;;4947191;28;20050;-66
2022/05/24 02:18:30;;;;;;;4.15;1.35;;;;;;;;;;4946927;28;20053;-65
2022/05/24 02:20:55;;;;;;;10.73;1.60;;;;;;;;;;4947007;28;20108;-66
2022/05/24 02:23:21;;;;;;;4.90;1.65;;;;;;;;;;4946942;28;20066;-66
2022/05/24 02:25:50;;;;;;;6.28;1.70;;;;;;;;;;4944806;28;20042;-66
2022/05/24 02:28:18;;;;;;;6.00;1.42;;;;;;;;;;4941360;28;20027;-66
2022/05/24 02:30:47;;;;;;;3.58;1.48;;;;;;;;;;4947056;28;20089;-65
2022/05/24 02:33:12;;;;;;;7.88;1.98;;;;;;;;;;4947551;28;20407;-66
2022/05/24 02:35:38;;;;;;;3.55;1.73;;;;;;;;;;4945827;28;20045;-65
2022/05/24 02:38:04;;;;;;;3.28;1.50;;;;;;;;;;4949029;28;20039;-66
2022/05/24 02:43:13;;;;;;;3.95;1.50;;;;;;;;;;4938617;28;20468;-65
2022/05/24 02:45:39;;;;;;;6.68;1.55;;;;;;;;;;4945157;28;20492;-65
2022/05/24 02:48:05;;;;;;;4.82;1.58;;;;;;;;;;4947269;28;20019;-66
2022/05/24 02:50:30;;;;;;;9.35;2.03;;;;;;;;;;4956668;28;20035;-66
2022/05/24 02:52:56;;;;;;;6.22;1.65;;;;;;;;;;4946923;28;20043;-65
2022/05/24 02:55:21;;;;;;;5.80;1.70;;;;;;;;;;4946697;28;20614;-65
2022/05/24 02:57:47;;;;;;;6.47;1.70;;;;;;;;;;4945085;28;20443;-65
2022/05/24 03:00:21;;;;;;;9.45;1.98;;;;;;;;;;4946877;28;20034;-65
2022/05/24 03:02:49;;;;;;;6.50;1.60;;;;;;;;;;4937917;28;20126;-65
2022/05/24 03:05:15;;;;;;;5.60;1.85;;;;;;;;;;4946522;28;20138;-66
2022/05/24 03:10:26;;;;;;;4.63;1.80;;;;;;;;;;4945667;28;20050;-66
2022/05/24 03:15:39;;;;;;;5.43;1.55;;;;;;;;;;4942856;28;20031;-66
2022/05/24 03:18:06;;;;;;;8.32;1.88;;;;;;;;;;4946796;28;20023;-65
2022/05/24 03:20:31;;;;;;;7.20;1.58;;;;;;;;;;4945532;28;20062;-65
2022/05/24 03:22:57;;;;;;;9.48;1.85;;;;;;;;;;4943660;28;20031;-66
2022/05/24 03:25:22;;;;;;;3.55;1.38;;;;;;;;;;4946251;28;20036;-66
2022/05/24 03:27:48;;;;;;;6.88;1.75;;;;;;;;;;4944861;28;20081;-65
2022/05/24 03:30:15;;;;;;;4.50;1.30;;;;;;;;;;4946282;28;20288;-66
2022/05/24 03:32:40;;;;;;;8.32;1.42;;;;;;;;;;4946182;28;20412;-66
2022/05/24 03:35:08;;;;;;;5.15;1.73;;;;;;;;;;4946291;28;20027;-65
2022/05/24 03:37:34;;;;;;;4.32;1.58;;;;;;;;;;4945908;28;20062;-66
2022/05/24 03:39:59;;;;;;;5.10;2.08;;;;;;;;;;4972631;28;20424;-66
2022/05/24 03:42:24;;;;;;;8.57;1.65;;;;;;;;;;4946545;28;20030;-65
2022/05/24 03:44:50;;;;;;;6.20;1.50;;;;;;;;;;4945697;28;20047;-66
2022/05/24 03:47:16;;;;;;;8.00;2.00;;;;;;;;;;4945902;28;20057;-66
2022/05/24 03:49:41;;;;;;;5.38;1.77;;;;;;;;;;4945883;28;20054;-66
2022/05/24 03:52:07;;;;;;;6.95;1.80;;;;;;;;;;4952148;28;20035;-66
2022/05/24 03:54:32;;;;;;;9.70;1.85;;;;;;;;;;4944638;28;20491;-65
2022/05/24 03:59:42;;;;;;;5.57;1.50;;;;;;;;;;4941550;28;20046;-66
2022/05/24 04:02:07;;;;;;;4.57;1.50;;;;;;;;;;4950327;28;20035;-65
2022/05/24 04:04:33;;;;;;;2.53;1.50;;;;;;;;;;4995198;28;20044;-65
2022/05/24 04:06:58;;;;;;;8.75;1.70;;;;;;;;;;4945053;28;20092;-66
2022/05/24 04:09:24;;;;;;;6.65;1.95;;;;;;;;;;4946075;28;20595;-66
2022/05/24 04:11:49;;;;;;;5.05;1.75;;;;;;;;;;4942846;29;20031;-65
2022/05/24 04:14:14;;;;;;;3.38;1.60;;;;;;;;;;4939780;28;20046;-65
2022/05/24 04:16:40;;;;;;;5.43;1.88;;;;;;;;;;4944975;28;20038;-65
2022/05/24 04:19:05;;;;;;;5.30;1.88;;;;;;;;;;4960063;28;20056;-66
2022/05/24 04:21:31;;;;;;;6.10;2.00;;;;;;;;;;4959960;28;20024;-65
2022/05/24 04:23:57;;;;;;;7.93;1.80;;;;;;;;;;4945113;28;20053;-66
2022/05/24 04:26:23;;;;;;;3.28;1.65;;;;;;;;;;4955055;28;20126;-65
2022/05/24 04:28:48;;;;;;;4.75;2.10;;;;;;;;;;4955792;28;20142;-66
2022/05/24 04:31:13;;;;;;;5.38;1.65;;;;;;;;;;4963273;28;20113;-65
2022/05/24 04:33:39;;;;;;;9.70;2.13;;;;;;;;;;4946687;28;20600;-66
2022/05/24 04:36:04;;;;;;;4.75;1.90;;;;;;;;;;4939712;29;20081;-65
2022/05/24 04:38:29;;;;;;;9.10;2.30;;;;;;;;;;4953582;28;20035;-65
2022/05/24 04:43:39;;;;;;;7.57;1.88;;;;;;;;;;4948489;28;20037;-66
2022/05/24 04:46:04;;;;;;;6.50;2.33;;;;;;;;;;4948919;28;20416;-66
2022/05/24 04:48:30;;;;;;;7.07;2.13;;;;;;;;;;4963398;28;20142;-65
2022/05/24 04:50:57;;;;;;;8.55;2.10;;;;;;;;;;4973899;28;20022;-66
2022/05/24 04:53:24;;;;;;;5.30;1.80;;;;;;;;;;4948035;28;20078;-66
2022/05/24 04:55:49;;;;;;;6.40;2.08;;;;;;;;;;4945698;28;20573;-65
2022/05/24 04:58:18;;;;;;;9.00;3.67;;;;;;;;;;4948383;28;20039;-66
2022/05/24 05:00:45;;;;;;;4.55;2.20;;;;;;;;;;4961884;28;20531;-65
2022/05/24 05:03:13;;;;;;;4.88;2.30;;;;;;;;;;4948589;28;20629;-66
2022/05/24 05:05:39;;;;;;;9.68;2.10;;;;;;;;;;4948552;28;20105;-65
2022/05/24 05:08:05;;;;;;;8.80;2.05;;;;;;;;;;4947169;28;20035;-66
2022/05/24 05:10:31;;;;;;;5.15;2.10;;;;;;;;;;4962612;28;20050;-65
2022/05/24 05:12:56;;;;;;;7.65;2.00;;;;;;;;;;4943008;28;20037;-66
2022/05/24 05:15:22;;;;;;;6.45;1.80;;;;;;;;;;4948130;28;20395;-65
2022/05/24 05:17:47;;;;;;;6.82;2.45;;;;;;;;;;4947891;28;20046;-65
2022/05/24 05:20:13;;;;;;;4.40;1.80;;;;;;;;;;4947548;28;20043;-66
2022/05/24 05:22:38;;;;;;;3.95;1.77;;;;;;;;;;4949866;28;20039;-66
2022/05/24 05:25:05;;;;;;;7.50;1.90;;;;;;;;;;4947864;28;20043;-66
2022/05/24 05:27:31;;;;;;;4.25;1.80;;;;;;;;;;4946727;28;20096;-66
2022/05/24 05:32:42;;;;;;;4.13;2.13;;;;;;;;;;4964018;28;20095;-66
2022/05/24 05:35:07;;;;;;;6.53;3.05;;;;;;;;;;4947356;28;20035;-66
2022/05/24 05:37:33;;;;;;;7.82;2.00;;;;;;;;;;4945749;28;20052;-66
2022/05/24 05:40:04;;;;;;;6.43;1.98;;;;;;;;;;4947622;28;20038;-65
2022/05/24 05:42:30;;;;;;;6.25;2.00;;;;;;;;;;4945215;28;20035;-65
2022/05/24 05:44:56;;;;;;;3.72;1.90;;;;;;;;;;4951024;28;20046;-66
2022/05/24 05:47:21;;;;;;;4.28;2.17;;;;;;;;;;4947752;28;20039;-65
2022/05/24 05:49:47;;;;;;;4.47;2.47;;;;;;;;;;4945618;28;20122;-65
2022/05/24 05:52:12;;;;;;;6.88;1.90;;;;;;;;;;4943412;28;20507;-66
2022/05/24 05:54:38;;;;;;;4.22;2.22;;;;;;;;;;4965420;28;20096;-66
2022/05/24 05:57:06;;;;;;;7.60;2.10;;;;;;;;;;4949504;28;20685;-65
2022/05/24 05:59:31;;;;;;;6.22;2.15;;;;;;;;;;4944446;28;20043;-65
2022/05/24 06:01:58;;;;;;;6.05;1.90;;;;;;;;;;4947693;28;20062;-65
2022/05/24 06:04:25;;;;;;;5.03;2.28;;;;;;;;;;4948578;28;20052;-66
2022/05/24 06:06:52;;;;;;;7.50;1.83;;;;;;;;;;4946032;28;20109;-66
2022/05/24 06:09:17;;;;;;;4.28;1.85;;;;;;;;;;4943450;28;20396;-65
2022/05/24 06:11:44;;;;;;;4.82;2.10;;;;;;;;;;4935082;28;20043;-65
2022/05/24 06:14:10;;;;;;;3.50;1.88;;;;;;;;;;4950659;28;20047;-65
2022/05/24 06:16:36;;;;;;;5.15;1.77;;;;;;;;;;4942369;28;20408;-68
2022/05/24 06:19:02;;;;;;;6.32;2.30;;;;;;;;;;4932932;28;20055;-65
2022/05/24 06:21:28;;;;;;;5.90;2.20;;;;;;;;;;4939893;28;20031;-65
2022/05/24 06:23:54;;;;;;;5.97;2.20;;;;;;;;;;4940528;29;20142;-65
2022/05/24 06:26:21;;;;;;;3.50;1.83;;;;;;;;;;4937261;28;20051;-65
2022/05/24 06:28:47;;;;;;;2.28;1.70;;;;;;;;;;4939047;28;20054;-65
2022/05/24 06:31:12;;;;;;;4.38;1.55;;;;;;;;;;4937394;28;20059;-65
2022/05/24 06:33:38;;;;;;;3.70;2.13;;;;;;;;;;4937385;28;20038;-65
2022/05/24 06:36:03;;;;;;;5.20;2.03;;;;;;;;;;4934249;28;20031;-65
2022/05/24 06:38:28;;;;;;;3.95;2.50;;;;;;;;;;4940000;28;20043;-65
2022/05/24 06:40:54;;;;;;;4.10;2.33;;;;;;;;;;4940510;28;20100;-66
2022/05/24 06:43:19;;;;;;;4.68;2.00;;;;;;;;;;4931349;28;20096;-65
2022/05/24 06:45:45;;;;;;;4.10;2.20;;;;;;;;;;4933990;28;20055;-65
2022/05/24 06:48:11;;;;;;;5.95;2.63;;;;;;;;;;4932771;29;20048;-65
2022/05/24 06:50:37;;;;;;;3.58;2.25;;;;;;;;;;4941363;28;20059;-65
2022/05/24 06:53:02;;;;;;;3.35;2.17;;;;;;;;;;4941548;28;20051;-65
2022/05/24 06:55:28;;;;;;;10.13;2.90;;;;;;;;;;4938872;28;20429;-65
2022/05/24 06:57:53;;;;;;;5.15;2.47;;;;;;;;;;4935909;28;20401;-67
2022/05/24 07:03:09;;;;;;;5.00;2.85;;;;;;;;;;4929530;28;20124;-65
2022/05/24 07:05:36;;;;;;;6.18;2.67;;;;;;;;;;4927051;28;20145;-66
2022/05/24 07:08:02;;;;;;;4.43;2.33;;;;;;;;;;4928084;28;20109;-66
2022/05/24 07:10:32;;;;;;;5.20;2.30;;;;;;;;;;4927053;28;20535;-66
2022/05/24 07:13:00;;;;;;;7.00;2.30;;;;;;;;;;4923517;28;20102;-68
2022/05/24 07:15:26;;;;;;;6.30;2.50;;;;;;;;;;4927950;28;20879;-66
2022/05/24 07:17:51;;;;;;;6.38;2.42;;;;;;;;;;4932880;28;20023;-66
2022/05/24 07:20:17;;;;;;;5.07;2.38;;;;;;;;;;4925099;28;20086;-67
2022/05/24 07:22:42;;;;;;;4.60;2.47;;;;;;;;;;4924269;28;20051;-67
2022/05/24 07:25:08;;;;;;;8.05;2.83;;;;;;;;;;4926601;28;20122;-67
2022/05/24 07:27:33;;;;;;;8.13;2.55;;;;;;;;;;4933199;28;20035;-67
2022/05/24 07:29:58;;;;;;;6.28;2.65;;;;;;;;;;4924709;28;20023;-68
2022/05/24 07:32:24;;;;;;;5.38;2.97;;;;;;;;;;4927517;29;20590;-67
2022/05/24 07:34:49;;;;;;;7.60;2.92;;;;;;;;;;4925490;28;20649;-67
2022/05/24 07:37:16;;;;;;;5.50;2.47;;;;;;;;;;4926755;28;20065;-67
2022/05/24 07:39:42;;;;;;;10.35;2.70;;;;;;;;;;4925581;28;20054;-68
2022/05/24 07:47:20;;;;;;;3.20;1.85;;;;;;;;;;4927221;28;20638;-67
2022/05/24 07:49:45;;;;;;;3.38;2.10;;;;;;;;;;4927210;28;20058;-69
2022/05/24 07:52:11;;;;;;;2.80;1.45;;;;;;;;;;4925659;28;20140;-68
2022/05/24 07:54:36;;;;;;;3.53;1.65;;;;;;;;;;4924815;28;20504;-68
2022/05/24 07:57:03;;;;;;;4.35;1.80;;;;;;;;;;4922670;28;20688;-68
2022/05/24 07:59:28;;;;;;;2.30;1.13;;;;;;;;;;4926362;28;20428;-67
2022/05/24 08:01:53;;;;;;;3.40;1.50;;;;;;;;;;4931574;28;20046;-68
2022/05/24 08:04:19;;;;;;;2.88;1.20;;;;;;;;;;4934376;29;20138;-69
2022/05/24 08:06:45;;;;;;;2.03;1.27;;;;;;;;;;4928084;28;20140;-69
2022/05/24 08:09:11;;;;;;;6.93;2.50;;;;;;;;;;4930058;28;20039;-68
2022/05/24 08:11:37;;;;;;;5.13;1.58;;;;;;;;;;4927277;28;20094;-69
2022/05/24 08:14:03;;;;;;;3.80;1.75;;;;;;;;;;4929917;28;20202;-69
2022/05/24 08:16:32;;;;;;;3.28;1.35;;;;;;;;;;4928277;28;20046;-70
2022/05/24 08:18:58;;;;;;;3.15;1.33;;;;;;;;;;4927738;28;20107;-69
2022/05/24 08:21:26;;;;;;;3.72;1.50;;;;;;;;;;4928164;28;20039;-68
2022/05/24 08:23:51;;;;;;;5.50;1.80;;;;;;;;;;4929163;28;20070;-69
2022/05/24 08:26:17;;;;;;;2.38;1.38;;;;;;;;;;4930792;28;20675;-67
2022/05/24 08:28:43;;;;;;;4.00;1.65;;;;;;;;;;4932978;28;20063;-68
2022/05/24 08:31:09;;;;;;;4.85;1.42;;;;;;;;;;4930242;28;20047;-69
2022/05/24 08:33:35;;;;;;;4.53;1.50;;;;;;;;;;4934605;28;20045;-69
2022/05/24 08:36:02;;;;;;;5.80;1.83;;;;;;;;;;4929253;28;20048;-69
2022/05/24 08:38:28;;;;;;;6.95;1.88;;;;;;;;;;4927795;28;20056;-68
2022/05/24 08:41:00;;;;;;;3.80;1.58;;;;;;;;;;4930337;28;20040;-69
2022/05/24 08:43:25;;;;;;;2.58;2.13;;;;;;;;;;4928018;28;20480;-68
2022/05/24 08:48:54;;;;;;;2.70;1.70;;;;;;;;;;4929801;28;20733;-66
2022/05/24 08:51:19;;;;;;;3.60;1.45;;;;;;;;;;4928349;28;20035;-67
2022/05/24 08:53:48;;;;;;;3.67;1.70;;;;;;;;;;4929163;28;20071;-67
2022/05/24 08:56:28;;;;;;;7.93;1.80;;;;;;;;;;4929359;28;20130;-67
2022/05/24 08:58:59;;;;;;;1.77;1.50;;;;;;;;;;4931024;28;20047;-67
2022/05/24 09:01:33;;;;;;;5.50;1.80;;;;;;;;;;4928739;28;20043;-68
2022/05/24 09:04:05;;;;;;;2.17;1.50;;;;;;;;;;4927384;28;20070;-67
2022/05/24 09:06:49;;;;;;;1.58;1.40;;;;;;;;;;4929014;28;20046;-67
2022/05/24 09:09:48;;;;;;;4.20;1.67;;;;;;;;;;4945913;28;20039;-68
2022/05/24 09:12:25;;;;;;;2.53;1.40;;;;;;;;;;4934864;28;20070;-68
2022/05/24 09:15:09;;;;;;;3.45;1.30;;;;;;;;;;4938655;28;20455;-68
2022/05/24 09:17:40;;;;;;;3.10;1.20;;;;;;;;;;4940874;29;20051;-69
2022/05/24 09:20:12;;;;;;;3.78;1.30;;;;;;;;;;4942267;28;20055;-69
2022/05/24 09:22:37;;;;;;;3.05;1.30;;;;;;;;;;4939841;28;20046;-69
2022/05/24 09:25:04;;;;;;;2.35;1.00;;;;;;;;;;4930500;28;20048;-68
2022/05/24 09:27:49;;;;;;;2.17;1.35;;;;;;;;;;4930024;28;20042;-70
2022/05/24 09:30:36;;;;;;;3.38;1.40;;;;;;;;;;4928962;29;20035;-70
2022/05/24 09:33:20;;;;;;;2.05;1.40;;;;;;;;;;4928332;29;20043;-70
2022/05/24 09:35:48;;;;;;;4.80;1.50;;;;;;;;;;4948902;28;20138;-68
2022/05/24 09:38:17;;;;;;;4.90;2.08;;;;;;;;;;4936039;28;20043;-67
2022/05/24 09:40:58;;;;;;;7.30;2.10;;;;;;;;;;4930494;28;20068;-68
2022/05/24 09:43:33;;;;;;;1.60;1.40;;;;;;;;;;4929196;28;20043;-68
2022/05/24 09:46:04;;;;;;;2.97;2.20;;;;;;;;;;4927137;28;20420;-68
2022/05/24 09:48:33;;;;;;;3.63;1.90;;;;;;;;;;4930150;28;20134;-69
2022/05/24 09:51:01;;;;;;;7.35;2.40;;;;;;;;;;4929739;28;20824;-69
2022/05/24 09:53:31;;;;;;;5.22;2.28;;;;;;;;;;4928056;28;20527;-69
2022/05/24 09:56:05;;;;;;;6.70;3.20;;;;;;;;;;4927267;28;20043;-69
2022/05/24 09:58:38;;;;;;;4.65;2.55;;;;;;;;;;4927773;28;20474;-68
2022/05/24 10:01:03;;;;;;;3.78;2.53;;;;;;;;;;4946887;28;20741;-68
2022/05/24 10:03:31;;;;;;;6.05;2.72;;;;;;;;;;4940667;28;20081;-68
2022/05/24 10:06:29;;;;;;;4.13;2.17;;;;;;;;;;4939919;28;20115;-69
2022/05/24 10:09:17;;;;;;;2.30;1.60;;;;;;;;;;4939793;28;20132;-68
2022/05/24 10:11:50;;;;;;;5.45;2.25;;;;;;;;;;4942348;28;20424;-69
2022/05/24 10:14:21;;;;;;;5.38;2.22;;;;;;;;;;4937504;28;20126;-68
2022/05/24 10:16:56;;;;;;;6.05;2.20;;;;;;;;;;4943207;28;20542;-69
2022/05/24 10:19:36;;;;;;;6.63;2.10;;;;;;;;;;4941722;28;20033;-70
2022/05/24 10:22:20;;;;;;;2.88;1.58;;;;;;;;;;4953446;28;20081;-69
2022/05/24 10:25:04;;;;;;;2.92;1.50;;;;;;;;;;4940291;28;20058;-70
2022/05/24 10:27:48;;;;;;;3.95;1.65;;;;;;;;;;4939433;28;20067;-68
2022/05/24 10:30:24;;;;;;;10.45;1.90;;;;;;;;;;4937314;29;20112;-70
2022/05/24 10:39:08;;;;;;;3.35;1.42;;;;;;;;;;4934764;28;20047;-69
2022/05/24 10:41:56;;;;;;;6.03;1.20;;;;;;;;;;4939852;28;20101;-69
2022/05/24 10:44:33;;;;;;;1.77;0.98;;;;;;;;;;4939331;28;20035;-69
2022/05/24 10:47:03;;;;;;;4.25;0.93;;;;;;;;;;4930118;28;20528;-69
2022/05/24 10:49:42;;;;;;;2.63;0.90;;;;;;;;;;4938039;28;20039;-69
2022/05/24 10:52:28;;;;;;;2.28;1.00;;;;;;;;;;4951323;28;20031;-67
2022/05/24 10:55:15;;;;;;;2.30;0.80;;;;;;;;;;4941750;28;20070;-67
2022/05/24 10:57:52;;;;;;;1.38;0.85;;;;;;;;;;4942357;28;20321;-68
2022/05/24 11:00:23;;;;;;;2.75;1.13;;;;;;;;;;4948364;28;20031;-67
2022/05/24 11:03:08;;;;;;;1.63;1.30;;;;;;;;;;4940431;28;20457;-68
2022/05/24 11:05:44;;;;;;;3.80;1.60;;;;;;;;;;4936823;28;20047;-68
2022/05/24 11:08:18;;;;;;;3.72;1.98;;;;;;;;;;4941361;28;20047;-68
2022/05/24 11:10:48;;;;;;;3.72;2.08;;;;;;;;;;4948027;28;20523;-68
2022/05/24 11:13:20;;;;;;;3.13;2.17;;;;;;;;;;5025209;28;20395;-69
2022/05/24 11:16:09;;;;;;;3.13;2.25;;;;;;;;;;4964629;28;20184;-67
2022/05/24 11:18:40;;;;;;;4.47;2.15;;;;;;;;;;4956253;28;20042;-68
2022/05/24 11:21:11;;;;;;;3.00;2.10;;;;;;;;;;4938579;28;20027;-68
2022/05/24 11:23:54;;;;;;;4.68;2.25;;;;;;;;;;4937699;28;20604;-68
2022/05/24 11:26:24;;;;;;;7.53;2.88;;;;;;;;;;4936940;28;20138;-68
2022/05/24 11:29:28;;;;;;;4.60;2.40;;;;;;;;;;4937566;28;20122;-67
2022/05/24 11:32:19;;;;;;;4.20;2.10;;;;;;;;;;4910289;28;20048;-67
2022/05/24 11:34:58;;;;;;;7.53;2.20;;;;;;;;;;4947651;28;20047;-68
2022/05/24 11:37:42;;;;;;;3.80;1.92;;;;;;;;;;4938922;28;20045;-68
2022/05/24 11:40:32;;;;;;;3.83;1.80;;;;;;;;;;4937151;28;20043;-68
2022/05/24 11:43:09;;;;;;;4.22;2.08;;;;;;;;;;4939902;28;20054;-68
2022/05/24 11:45:57;;;;;;;3.97;2.00;;;;;;;;;;4937586;28;20709;-68
2022/05/24 11:48:38;;;;;;;4.35;1.88;;;;;;;;;;4935762;29;20035;-68
2022/05/24 11:51:41;;;;;;;4.25;2.28;;;;;;;;;;4943864;28;20043;-68
2022/05/24 11:54:15;;;;;;;3.75;2.65;;;;;;;;;;4937047;29;20039;-68
2022/05/24 11:57:03;;;;;;;3.00;2.22;;;;;;;;;;4935480;28;20428;-69
2022/05/24 11:59:40;;;;;;;4.93;2.38;;;;;;;;;;4934154;28;20036;-69
2022/05/24 12:02:32;;;;;;;5.68;2.70;;;;;;;;;;4956547;28;20067;-70
2022/05/24 12:07:58;;;;;;;4.80;2.22;;;;;;;;;;4941112;29;20054;-69
2022/05/24 12:10:24;;;;;;;4.70;2.75;;;;;;;;;;4931363;28;20036;-71
2022/05/24 12:12:53;;;;;;;3.67;2.50;;;;;;;;;;4936515;28;20054;-69
2022/05/24 12:15:22;;;;;;;3.55;2.00;;;;;;;;;;4943989;28;20035;-68
2022/05/24 12:18:11;;;;;;;1.27;0.90;;;;;;;;;;4970914;28;20042;-70
2022/05/24 12:20:36;;;;;;;1.10;0.60;;;;;;;;;;4995850;28;20647;-68
2022/05/24 12:23:09;;;;;;;2.78;0.80;;;;;;;;;;4944014;28;20050;-70
2022/05/24 12:25:54;;;;;;;1.17;0.70;;;;;;;;;;4942094;28;20039;-69
2022/05/24 12:28:41;;;;;;;1.75;0.90;;;;;;;;;;4931571;28;20101;-70
2022/05/24 12:31:21;;;;;;;2.20;0.70;;;;;;;;;;4929977;28;20067;-69
2022/05/24 12:33:52;;;;;;;1.25;0.70;;;;;;;;;;4940737;28;20070;-69
2022/05/24 12:36:28;;;;;;;2.90;0.90;;;;;;;;;;4959135;28;20554;-70
2022/05/24 12:39:12;;;;;;;4.07;0.90;;;;;;;;;;4949287;28;20047;-70
2022/05/24 12:41:42;;;;;;;1.17;0.90;;;;;;;;;;4941753;28;20069;-71
2022/05/24 12:44:31;;;;;;;2.55;0.80;;;;;;;;;;4940956;28;20095;-69
2022/05/24 12:47:11;;;;;;;0.60;0.60;;;;;;;;;;4937383;28;20051;-68
2022/05/24 12:49:48;;;;;;;1.50;0.70;;;;;;;;;;4946123;28;20031;-69
2022/05/24 12:52:22;;;;;;;0.73;0.60;;;;;;;;;;4933682;28;20042;-68
2022/05/24 12:54:55;;;;;;;0.75;0.70;;;;;;;;;;4944053;28;20038;-68
2022/05/24 12:57:42;;;;;;;;;;;;;;;;;;4972405;28;20041;-70
2022/05/24 13:00:18;;;;;;;2.95;0.80;;;;;;;;;;4937492;29;20288;-69
2022/05/24 13:02:52;;;;;;;2.10;0.80;;;;;;;;;;4941746;29;20169;-67
2022/05/24 13:05:29;;;;;;;1.13;0.60;;;;;;;;;;4942252;28;20038;-68
2022/05/24 13:07:58;;;;;;;1.00;0.80;;;;;;;;;;4956676;28;20123;-69
2022/05/24 13:10:34;;;;;;;4.32;0.85;;;;;;;;;;4956479;28;20932;-68
2022/05/24 13:13:00;;;;;;;1.58;0.63;;;;;;;;;;4937253;29;20066;-70
2022/05/24 13:15:34;;;;;;;1.80;0.73;;;;;;;;;;4943341;28;20448;-69
2022/05/24 13:18:06;;;;;;;2.60;0.80;;;;;;;;;;4940936;28;20031;-68
2022/05/24 13:20:36;;;;;;;2.72;0.80;;;;;;;;;;4944307;28;20070;-68
2022/05/24 13:23:24;;;;;;;2.35;0.85;;;;;;;;;;4956773;28;20121;-68
2022/05/24 13:26:05;;;;;;;2.00;0.77;;;;;;;;;;4930885;29;20142;-68
2022/05/24 13:28:35;;;;;;;2.50;0.90;;;;;;;;;;4934459;28;20078;-69
2022/05/24 13:34:23;;;;;;;2.90;0.80;;;;;;;;;;4950776;28;20057;-70
2022/05/24 13:36:53;;;;;;;2.15;0.90;;;;;;;;;;4938468;28;20133;-70
2022/05/24 13:39:45;;;;;;;1.95;0.70;;;;;;;;;;4937584;29;20044;-70
2022/05/24 13:42:17;;;;;;;1.80;0.80;;;;;;;;;;4939387;28;20124;-69
2022/05/24 13:45:05;;;;;;;1.17;0.70;;;;;;;;;;4937712;29;20542;-68
2022/05/24 13:47:39;;;;;;;2.00;0.80;;;;;;;;;;4939914;28;20051;-69
2022/05/24 13:50:29;;;;;;;2.63;0.60;;;;;;;;;;4936088;28;20070;-69
2022/05/24 13:52:58;;;;;;;1.48;0.60;;;;;;;;;;4942346;28;20118;-71
2022/05/24 13:55:40;;;;;;;4.93;0.60;;;;;;;;;;4952157;28;20073;-68
2022/05/24 13:58:08;;;;;;;2.67;0.82;;;;;;;;;;4943155;28;20047;-68
2022/05/24 14:00:45;;;;;;;1.42;0.80;;;;;;;;;;4938608;28;20031;-68
2022/05/24 14:03:16;;;;;;;0.70;0.60;;;;;;;;;;4940485;29;20163;-67
2022/05/24 14:05:43;;;;;;;1.02;0.60;;;;;;;;;;4941324;28;20040;-66
2022/05/24 14:08:10;;;;;;;0.60;0.60;;;;;;;;;;4934643;28;20039;-67
2022/05/24 14:10:37;;;;;;;1.40;0.80;;;;;;;;;;4933555;28;20066;-67
2022/05/24 14:13:10;;;;;;;4.38;1.15;;;;;;;;;;4935778;28;20039;-68
2022/05/24 14:15:40;;;;;;;8.52;1.23;;;;;;;;;;4941106;28;20023;-67
2022/05/24 14:18:06;;;;;;;4.85;1.80;;;;;;;;;;4942697;29;20031;-67
2022/05/24 14:20:32;;;;;;;2.38;1.27;;;;;;;;;;4937155;29;20048;-67
2022/05/24 14:22:58;;;;;;;6.97;1.17;;;;;;;;;;4942427;28;20393;-67
2022/05/24 14:25:24;;;;;;;2.47;1.13;;;;;;;;;;4947764;28;20040;-67
2022/05/24 14:27:49;;;;;;;4.15;1.40;;;;;;;;;;4951070;28;20458;-66
2022/05/24 14:30:14;;;;;;;2.08;1.05;;;;;;;;;;4943956;28;20035;-66
2022/05/24 14:32:40;;;;;;;2.67;1.10;;;;;;;;;;4968901;28;20099;-67
2022/05/24 14:35:11;;;;;;;1.80;1.00;;;;;;;;;;4941770;28;20443;-67
2022/05/24 14:37:37;;;;;;;2.95;1.20;;;;;;;;;;4943901;28;20067;-67
2022/05/24 14:40:04;;;;;;;2.80;1.27;;;;;;;;;;4939014;28;20074;-67
2022/05/24 14:42:32;;;;;;;1.77;1.13;;;;;;;;;;4937780;28;20034;-68
2022/05/24 14:44:57;;;;;;;2.30;0.90;;;;;;;;;;4943958;28;20031;-68
2022/05/24 14:47:23;;;;;;;1.85;0.90;;;;;;;;;;4941661;28;20105;-69
2022/05/24 14:49:48;;;;;;;3.60;0.90;;;;;;;;;;4938245;28;20420;-68
2022/05/24 14:52:16;;;;;;;0.90;0.70;;;;;;;;;;4936378;28;20054;-69
2022/05/24 14:54:45;;;;;;;1.30;1.02;;;;;;;;;;4957839;28;20034;-68
2022/05/24 14:57:12;;;;;;;1.58;0.80;;;;;;;;;;4944402;28;20122;-68
2022/05/24 14:59:39;;;;;;;3.38;1.88;;;;;;;;;;4939177;28;20688;-67
2022/05/24 15:02:06;;;;;;;1.10;0.80;;;;;;;;;;4932851;28;20126;-67
2022/05/24 15:04:32;;;;;;;3.95;1.00;;;;;;;;;;4941078;28;20385;-67
2022/05/24 15:15:20;;;;;;;1.00;0.85;;;;;;;;;;4930167;28;20057;-70
2022/05/24 15:15:24;;;;;;;1.38;0.90;;;;;;;;;;4938789;29;20035;-67
2022/05/24 15:17:50;;;;;;;2.08;0.85;;;;;;;;;;4939326;28;20138;-67
2022/05/24 15:20:18;;;;;;;3.38;1.02;;;;;;;;;;4929078;28;20090;-67
2022/05/24 15:22:51;;;;;;;3.35;1.02;;;;;;;;;;4926134;28;20039;-68
2022/05/24 15:25:20;;;;;;;3.20;1.38;;;;;;;;;;4930892;28;20042;-67
2022/05/24 15:27:46;;;;;;;3.67;1.17;;;;;;;;;;4939216;28;20039;-67
2022/05/24 15:30:12;;;;;;;1.05;0.80;;;;;;;;;;4928224;28;20500;-67
2022/05/24 15:32:38;;;;;;;1.50;0.93;;;;;;;;;;4928474;28;20047;-67
2022/05/24 15:35:05;;;;;;;2.00;1.00;;;;;;;;;;4930282;28;20046;-67
2022/05/24 15:37:31;;;;;;;2.40;1.27;;;;;;;;;;4930068;28;20072;-67
2022/05/24 15:39:57;;;;;;;1.95;1.00;;;;;;;;;;4929532;28;20051;-66
2022/05/24 15:42:23;;;;;;;3.85;1.23;;;;;;;;;;4930472;29;20042;-66
2022/05/24 15:44:48;;;;;;;4.20;1.05;;;;;;;;;;4930166;28;20044;-67
2022/05/24 15:47:13;;;;;;;2.60;1.08;;;;;;;;;;4928118;28;20096;-67
2022/05/24 15:49:39;;;;;;;3.58;2.33;;;;;;;;;;4928109;28;20047;-67
2022/05/24 15:52:07;;;;;;;1.85;1.00;;;;;;;;;;4927797;28;20042;-67
2022/05/24 15:54:32;;;;;;;1.40;0.95;;;;;;;;;;4931767;28;20023;-67